Latest Weather Observations for Scherger

IDQ60801

Issued at 7:32 am EST Tuesday 7 July 2020 (issued every 10 minutes, with the page automatically refreshed every 10 minutes)

About weather observations | Map of weather stations | Latest weather observations for QLD | Other Formats
Station Details ID: 027075 Name: SCHERGER RAAF Lat: -12.62 Lon: 142.09 Height: 39.34 m
Data from the previous 72 hours. | See also: Recent months at Scherger
Date/Time
EST
Temp
°C
App
Temp
°C
Dew
Point
°C
Rel
Hum
%
Delta-T
°C
Wind Press
QNH
hPa
Press
MSL
hPa
Rain since
9am
mm
Dir  Spd
km/h
Gust
km/h
Spd
kts
Gust
kts
07/07:30am 21.6 23.2 17.8 79 2.4 S 6 9 3 5 1015.0 1014.8 0.0
07/07:00am 21.6 23.2 17.8 79 2.4 S 6 9 3 5 1014.9 1014.7 0.0
07/06:30am 21.7 23.3 18.3 81 2.1 SE 7 11 4 6 1014.7 1014.5 0.0
07/06:00am 21.4 22.7 17.6 79 2.3 SSE 7 11 4 6 1014.6 1014.4 0.0
07/05:30am 21.5 23.0 17.5 78 2.5 S 6 7 3 4 1014.4 1014.2 0.0
07/05:00am 22.0 24.7 17.8 77 2.6 CALM 0 6 0 3 1014.1 1013.9 0.0
07/04:30am 21.9 23.2 17.5 76 2.7 SSE 7 11 4 6 1014.0 1013.8 0.0
07/04:00am 22.0 23.2 17.4 75 2.8 SSE 7 11 4 6 1014.1 1013.9 0.0
07/03:30am 22.3 23.7 17.7 75 2.9 SSE 7 11 4 6 1014.1 1013.9 0.0
07/03:00am 22.4 23.3 17.5 74 3.0 SSE 9 13 5 7 1014.3 1014.1 0.0
07/02:30am 22.1 23.0 17.5 75 2.8 SE 9 15 5 8 1014.4 1014.2 0.0
07/02:00am 22.5 23.0 17.4 73 3.2 SSE 11 15 6 8 1014.5 1014.3 0.0
07/01:30am 22.3 23.1 17.4 74 3.0 SSE 9 17 5 9 1015.0 1014.8 0.0
07/01:00am 22.4 22.9 17.5 74 3.0 SSE 11 17 6 9 1015.2 1015.0 0.0
07/12:30am 22.4 22.5 17.5 74 3.0 SE 13 17 7 9 1015.6 1015.4 0.0
07/12:00am 22.5 22.6 17.4 73 3.1 SE 13 22 7 12 1015.8 1015.6 0.0
 
Date/Time
EST
Temp
°C
App
Temp
°C
Dew
Point
°C
Rel
Hum
%
Delta-T
°C
Wind Press
QNH
hPa
Press
MSL
hPa
Rain since
9am
mm
Dir  Spd
km/h
Gust
km/h
Spd
kts
Gust
kts
06/11:30pm 22.7 22.8 17.4 72 3.3 SE 13 20 7 11 1016.2 1016.0 0.0
06/11:00pm 22.8 23.1 17.0 70 3.6 SE 11 19 6 10 1016.4 1016.2 0.0
06/10:30pm 23.1 23.4 16.9 68 3.8 SE 11 20 6 11 1016.4 1016.2 0.0
06/10:00pm 23.5 23.4 17.0 67 4.0 ESE 13 20 7 11 1016.5 1016.3 0.0
06/09:30pm 23.9 23.8 16.9 65 4.3 ESE 13 26 7 14 1016.6 1016.4 0.0
06/09:00pm 24.1 24.2 16.6 63 4.6 E 11 24 6 13 1016.5 1016.3 0.0
06/08:30pm 24.2 24.8 16.7 63 4.6 ESE 9 13 5 7 1016.1 1015.9 0.0
06/08:00pm 24.4 24.3 16.9 63 4.6 ESE 13 20 7 11 1015.8 1015.6 0.0
06/07:30pm 24.5 25.3 17.2 63 4.5 SE 9 15 5 8 1015.5 1015.3 0.0
06/07:00pm 24.8 25.1 17.0 62 4.8 ESE 11 19 6 10 1015.1 1014.9 0.0
06/06:30pm 25.2 25.8 16.9 60 5.1 ESE 9 17 5 9 1014.7 1014.5 0.0
06/06:00pm 26.1 26.5 17.2 58 5.6 SE 11 19 6 10 1014.4 1014.2 0.0
06/05:30pm 26.5 26.4 17.0 56 5.9 SE 13 24 7 13 1014.0 1013.8 0.0
06/05:00pm 27.0 27.3 17.8 57 5.8 ESE 13 20 7 11 1013.7 1013.5 0.0
06/04:30pm 27.4 28.0 17.8 55 6.1 ESE 11 20 6 11 1013.3 1013.1 0.0
06/04:00pm 27.6 27.8 17.7 54 6.3 ESE 13 20 7 11 1013.1 1012.9 0.0
06/03:30pm 27.8 28.0 17.6 53 6.4 ESE 13 26 7 14 1013.2 1013.0 0.0
06/03:00pm 27.9 27.6 17.4 52 6.6 SE 15 24 8 13 1013.1 1012.9 0.0
06/02:30pm 29.0 28.5 17.8 50 7.1 SE 17 28 9 15 1013.2 1013.0 0.0
06/02:00pm 28.5 27.7 17.1 50 7.2 SE 17 24 9 13 1013.7 1013.5 0.0
06/01:30pm 28.2 28.5 18.0 54 6.5 SE 13 20 7 11 1014.1 1013.9 0.0
06/01:00pm 27.4 27.6 17.6 55 6.2 E 13 28 7 15 1014.6 1014.4 0.0
06/12:30pm 27.0 27.1 17.5 56 6.0 ESE 13 20 7 11 1015.0 1014.8 0.0
06/12:00pm 25.9 25.4 17.0 58 5.5 SE 15 24 8 13 1015.4 1015.2 0.0
06/11:30am 25.6 25.7 17.5 61 5.1 ESE 13 24 7 13 1015.7 1015.5 0.0
06/11:00am 24.5 24.4 17.0 63 4.6 SE 13 22 7 12 1016.0 1015.8 0.0
06/10:30am 24.2 24.7 17.4 65 4.2 ESE 11 20 6 11 1016.1 1015.9 0.0
06/10:00am 23.1 23.1 17.1 69 3.7 ESE 13 22 7 12 1016.3 1016.1 0.0
06/09:30am 22.3 23.0 17.0 72 3.3 SE 9 15 5 8 1016.0 1015.8 0.0
06/09:00am 21.6 21.4 16.8 74 2.9 SSE 13 24 7 13 1015.8 1015.6 0.0
06/08:30am 20.8 20.5 16.4 76 2.7 SSE 13 20 7 11 1015.8 1015.6 0.0
06/08:00am 20.2 20.2 16.2 78 2.4 SSE 11 20 6 11 1015.5 1015.3 0.0
06/07:30am 20.2 19.8 16.2 78 2.4 SSE 13 22 7 12 1015.2 1015.0 0.0
06/07:00am 20.5 20.1 16.3 77 2.5 SSE 13 19 7 10 1014.8 1014.6 0.0
06/06:30am 20.6 20.6 16.2 76 2.6 SE 11 17 6 9 1014.8 1014.6 0.0
06/06:00am 21.2 20.8 16.2 73 3.0 SE 13 20 7 11 1014.6 1014.4 0.0
06/05:30am 21.6 20.9 16.3 72 3.2 SSE 15 30 8 16 1014.3 1014.1 0.0
06/05:00am 21.5 21.6 16.5 73 3.0 SE 11 22 6 12 1014.5 1014.3 0.0
06/04:30am 21.4 21.5 16.4 73 3.0 SE 11 17 6 9 1014.4 1014.2 0.0
06/04:00am 21.4 21.3 16.1 72 3.2 SSE 11 17 6 9 1014.3 1014.1 0.0
06/03:30am 21.5 21.1 16.2 72 3.2 SSE 13 20 7 11 1014.3 1014.1 0.0
06/03:00am 21.7 22.1 16.2 71 3.3 SE 9 17 5 9 1014.4 1014.2 0.0
06/02:30am 21.5 22.0 16.5 73 3.0 SSE 9 17 5 9 1014.7 1014.5 0.0
06/02:00am 22.0 22.2 16.7 72 3.2 S 11 15 6 8 1015.0 1014.8 0.0
06/01:30am 22.1 21.9 16.8 72 3.2 SSE 13 20 7 11 1015.2 1015.0 0.0
06/01:00am 22.2 22.5 16.9 72 3.2 SE 11 22 6 12 1015.2 1015.0 0.0
06/12:30am 22.1 22.4 17.0 73 3.1 SE 11 17 6 9 1015.3 1015.1 0.0
06/12:00am 21.6 22.2 16.8 74 2.9 SE 9 15 5 8 1015.6 1015.4 0.0
 
Date/Time
EST
Temp
°C
App
Temp
°C
Dew
Point
°C
Rel
Hum
%
Delta-T
°C
Wind Press
QNH
hPa
Press
MSL
hPa
Rain since
9am
mm
Dir  Spd
km/h
Gust
km/h
Spd
kts
Gust
kts
05/11:30pm 21.4 21.9 16.6 74 2.9 SSE 9 17 5 9 1015.8 1015.6 0.0
05/11:00pm 21.7 22.2 16.6 73 3.1 SSE 9 13 5 7 1015.7 1015.5 0.0
05/10:30pm 21.8 22.3 16.5 72 3.2 SE 9 15 5 8 1015.9 1015.7 0.0
05/10:00pm 22.1 22.6 16.6 71 3.3 SE 9 17 5 9 1015.9 1015.7 0.0
05/09:30pm 22.3 22.7 16.3 69 3.6 SE 9 17 5 9 1016.0 1015.8 0.0
05/09:00pm 22.8 23.3 16.6 68 3.8 SE 9 17 5 9 1015.8 1015.6 0.0
05/08:30pm 23.2 23.3 16.5 66 4.1 SE 11 22 6 12 1015.5 1015.3 0.0
05/08:00pm 23.5 23.6 16.5 65 4.3 SE 11 24 6 13 1015.1 1014.9 0.0
05/07:30pm 23.8 23.4 16.3 63 4.6 SE 13 26 7 14 1014.6 1014.4 0.0
05/07:00pm 24.1 24.2 16.4 62 4.7 ESE 11 17 6 9 1014.1 1013.9 0.0
05/06:30pm 24.6 24.6 16.3 60 5.1 ESE 11 22 6 12 1013.8 1013.6 0.0
05/06:00pm 25.3 24.1 16.2 57 5.6 ESE 17 28 9 15 1013.5 1013.3 0.0
05/05:30pm 26.1 26.0 16.9 57 5.7 E 13 24 7 13 1013.0 1012.8 0.0
05/05:00pm 27.0 26.6 17.2 55 6.1 ESE 15 30 8 16 1012.9 1012.7 0.0
05/04:30pm 27.4 26.9 17.0 53 6.5 ESE 15 30 8 16 1012.7 1012.5 0.0
05/04:00pm 28.2 27.0 17.1 51 7.0 E 19 28 10 15 1012.5 1012.3 0.0
05/03:30pm 27.6 27.2 17.2 53 6.5 ESE 15 24 8 13 1012.7 1012.5 0.0
05/03:00pm 27.6 27.7 17.5 54 6.4 ESE 13 24 7 13 1012.7 1012.5 0.0
05/02:30pm 28.4 28.7 17.9 53 6.7 ESE 13 24 7 13 1012.8 1012.6 0.0
05/02:00pm 27.2 26.3 17.7 56 6.0 ESE 19 30 10 16 1013.3 1013.1 0.0
05/01:30pm 27.6 27.9 18.0 55 6.1 SE 13 26 7 14 1013.9 1013.7 0.0
05/01:00pm 27.7 28.5 18.1 56 6.1 ESE 11 26 6 14 1014.2 1014.0 0.0
05/12:30pm 26.3 26.3 17.1 57 5.7 SE 13 26 7 14 1014.7 1014.5 0.0
05/12:00pm 26.8 27.0 17.6 57 5.8 ESE 13 20 7 11 1015.1 1014.9 0.0
05/11:30am 26.6 26.1 17.7 58 5.6 SE 17 28 9 15 1015.4 1015.2 0.0
05/11:00am 26.4 25.8 17.5 58 5.6 SE 17 26 9 14 1015.6 1015.4 0.0
05/10:30am 25.8 25.1 17.4 59 5.3 ESE 17 26 9 14 1015.9 1015.7 0.0
05/10:00am 25.0 24.4 17.5 63 4.7 ESE 17 32 9 17 1016.1 1015.9 0.0
05/09:30am 24.1 23.4 17.4 66 4.2 ESE 17 24 9 13 1016.1 1015.9 0.0
05/09:00am 23.3 23.0 17.3 69 3.7 SE 15 24 8 13 1016.2 1016.0 0.2
05/08:30am 21.5 22.2 17.1 76 2.7 SE 9 15 5 8 1016.1 1015.9 0.2
05/08:00am 20.0 20.1 16.6 81 2.1 SSE 11 17 6 9 1015.7 1015.5 0.2
05/07:30am 19.2 19.3 16.4 84 1.7 SSE 11 15 6 8 1015.3 1015.1 0.2
05/07:00am 19.1 19.0 16.1 83 1.8 SSE 11 15 6 8 1015.1 1014.9 0.2
05/06:30am 19.4 19.8 16.4 83 1.8 SSE 9 17 5 9 1014.9 1014.7 0.2
05/06:00am 19.4 19.3 16.1 81 2.0 SSE 11 17 6 9 1014.9 1014.7 0.2
05/05:30am 19.8 19.5 16.4 81 2.0 SSE 13 19 7 10 1014.7 1014.5 0.2
05/05:00am 19.3 19.6 16.0 81 2.0 SSE 9 15 5 8 1014.4 1014.2 0.2
05/04:30am 19.6 19.9 15.9 79 2.2 SSE 9 15 5 8 1014.3 1014.1 0.2
05/04:00am 19.9 20.1 15.7 77 2.5 SSE 9 15 5 8 1014.2 1014.0 0.2
05/03:30am 20.4 20.2 15.8 75 2.7 SSE 11 19 6 10 1014.4 1014.2 0.2
05/03:00am 20.9 20.4 15.9 73 3.0 SSE 13 17 7 9 1014.8 1014.6 0.2
05/02:30am 21.3 21.1 15.8 71 3.3 SSE 11 19 6 10 1015.2 1015.0 0.2
05/02:00am 21.6 21.9 16.1 71 3.3 SE 9 17 5 9 1015.4 1015.2 0.2
05/01:30am 22.0 22.1 16.5 71 3.3 SE 11 22 6 12 1015.6 1015.4 0.2
05/01:00am 22.1 22.7 16.8 72 3.2 SE 9 19 5 10 1015.6 1015.4 0.2
05/12:30am 22.0 22.5 16.5 71 3.3 SE 9 15 5 8 1015.8 1015.6 0.2
05/12:00am 22.1 22.2 16.6 71 3.3 SE 11 17 6 9 1015.8 1015.6 0.2
 
Date/Time
EST
Temp
°C
App
Temp
°C
Dew
Point
°C
Rel
Hum
%
Delta-T
°C
Wind Press
QNH
hPa
Press
MSL
hPa
Rain since
9am
mm
Dir  Spd
km/h
Gust
km/h
Spd
kts
Gust
kts
04/11:30pm 22.2 22.8 16.9 72 3.2 SE 9 15 5 8 1016.0 1015.8 0.2
04/11:00pm 22.1 23.2 17.0 73 3.1 SE 7 13 4 7 1016.1 1015.9 0.2
04/10:30pm 22.2 23.4 17.3 74 3.0 SE 7 11 4 6 1016.3 1016.1 0.2
04/10:00pm 22.4 24.2 17.5 74 3.0 SE 4 9 2 5 1016.3 1016.1 0.2
04/09:30pm 23.1 24.7 18.2 74 3.1 ESE 7 13 4 7 1016.2 1016.0 0.2
04/09:00pm 22.9 24.7 18.7 77 2.7 SE 7 9 4 5 1015.9 1015.7 0.2
04/08:30pm 22.8 24.9 19.0 79 2.4 ESE 6 9 3 5 1015.9 1015.7 0.2
04/08:00pm 23.1 25.2 19.3 79 2.4 ESE 7 13 4 7 1015.6 1015.4 0.2
04/07:30pm 23.0 25.4 19.6 81 2.2 ESE 6 11 3 6 1015.2 1015.0 0.2
04/07:00pm 22.9 25.1 19.7 82 2.1 E 7 11 4 6 1015.1 1014.9 0.2
04/06:30pm 23.0 24.9 19.8 82 2.1 E 9 15 5 8 1014.8 1014.6 0.2
04/06:00pm 22.9 25.3 20.1 84 1.8 E 7 11 4 6 1014.5 1014.3 0.2
04/05:30pm 25.2 26.9 19.3 70 3.8 ESE 9 17 5 9 1014.0 1013.8 0.0
04/05:00pm 25.5 26.4 19.2 68 4.0 ESE 13 28 7 15 1013.8 1013.6 0.0
04/04:30pm 24.9 24.2 18.6 68 4.0 ESE 20 39 11 21 1013.7 1013.5 0.0
04/04:00pm 26.5 26.0 18.6 62 5.0 ESE 19 28 10 15 1013.6 1013.4 0.0
04/03:30pm 26.6 26.6 18.2 60 5.3 E 15 30 8 16 1013.2 1013.0 0.0
04/03:00pm 27.7 27.5 18.4 57 5.9 ESE 17 26 9 14 1013.2 1013.0 0.0
04/02:30pm 28.8 29.2 19.1 55 6.3 ESE 15 28 8 15 1013.4 1013.2 0.0
04/02:00pm 27.0 26.9 18.8 60 5.3 ESE 17 28 9 15 1013.7 1013.5 0.0
04/01:30pm 26.8 27.2 18.1 59 5.5 ESE 13 26 7 14 1014.0 1013.8 0.0
04/01:00pm 26.7 26.8 19.1 63 4.9 ESE 17 28 9 15 1014.6 1014.4 0.0
04/12:30pm 25.9 26.1 18.6 64 4.7 SE 15 30 8 16 1015.0 1014.8 0.0
04/12:00pm 25.9 25.8 18.8 65 4.5 ESE 17 32 9 17 1015.5 1015.3 0.0
04/11:30am 25.0 24.6 18.0 65 4.4 ESE 17 32 9 17 1015.8 1015.6 0.0
04/11:00am 24.7 23.6 17.7 65 4.4 ESE 20 33 11 18 1016.0 1015.8 0.0
04/10:30am 24.9 24.8 17.9 65 4.4 SE 15 24 8 13 1016.3 1016.1 0.0
04/10:00am 24.2 22.6 17.4 65 4.2 SE 22 33 12 18 1016.4 1016.2 0.0
04/09:30am 23.9 24.0 17.4 67 4.0 ESE 13 22 7 12 1016.6 1016.4 0.0
04/09:00am 22.6 22.7 17.5 73 3.2 SSE 13 20 7 11 1016.8 1016.6 0.0
04/08:30am 21.5 21.9 17.3 77 2.6 SSE 11 17 6 9 1016.6 1016.4 0.0
04/08:00am 20.4 20.4 17.2 82 2.0 SSE 13 20 7 11 1016.2 1016.0 0.0

Other formats

Comma delimited format used in spreadsheet applications
http://www.bom.gov.au/fwo/IDQ60801/IDQ60801.94171.axf

JavaScript Object Notation format (JSON) in row-major order
http://www.bom.gov.au/fwo/IDQ60801/IDQ60801.94171.json

Data quality

Most of these data are generated automatically and are frequently updated. Quality checks on data are not normally performed. It is possible for incorrect values to appear. Refer to information at About Latest Weather Observations and please check the disclaimer before using these data.